Terminal Aerodrome Forecast
Issued by NWS St Louis, MO

Home | Current Version | Previous Version | Text Only | Print | Product List | Glossary On
Versions: 1 2 3 4 5 6 7 8 9 10 11 12 13 14 15
000
FTUS43 KLSX 081127
TAFCOU
TAF
KCOU 081127Z 0812/0912 21007KT P6SM SKC
     FM081600 23010G16KT P6SM BKN150
     FM090000 22007KT P6SM BKN130
     FM090500 26009KT P6SM BKN120=

USA.gov is the U.S. government's official web portal to all federal, state and local government web resources and services.